^^
Station Historical Data
Daily Summary for March 3, 2018 Units:  Both    English   Metric
« Previous Day
Next Day »
Daily Weekly Monthly Yearly Custom
  High: Low: Average:
Temperature: TemperatureF °F /  -17.8 °C 59.7 °F /  15.4 °C 74.3 °F /  23.5 °C
Dew Point: DewpointF °F /  -17.8 °C 46.4 °F /  8 °C 53.3 °F /  11.8 °C
Humidity: Humidity% 22% 54%
Wind Speed: WindSpeedMPHmph /  0km/h - 1.8mph /  2.9km/h
Wind Gust: WindSpeedGustMPHmph /  0km/h - -
Wind- - SE
Pressure: PressureIn in /  0 hPa 29.56 in /  1000.9 hPa -
Precipitation: 0.24 in /  6.1 mm    
Historical Graphs
 
 
Tabular Data for March 3, 2018
Time Temperature Dew Point Pressure Wind Wind Speed Wind Gust Humidity Rainfall Rate (Hourly) solar Conditions
TemperatureF °F /  -17.8 °C DewpointF °F /  -17.8 °C PressureInin /  0hPa Calm     Humidity% HourlyPrecipInin /  0mm SolarRadiationWatts/m^2 W/m2 Conditions
00:00 70.2 °F /  21.2 °C 53.8 °F /  12.1 °C 29.70in /  1005.6hPa ENE 0.9mph /  1.4km/h 4.0mph /  6.4km/h 56% 0.00in /  0mm 0.0 W/m2
00:05 70.0 °F /  21.1 °C 54.0 °F /  12.2 °C 29.70in /  1005.6hPa Calm   3.0mph /  4.8km/h 57% 0.00in /  0mm 0.0 W/m2
00:11 70.0 °F /  21.1 °C 54.0 °F /  12.2 °C 29.70in /  1005.6hPa Calm   2.0mph /  3.2km/h 57% 0.00in /  0mm 0.0 W/m2
00:16 69.8 °F /  21 °C 54.0 °F /  12.2 °C 29.70in /  1005.6hPa Calm   1.0mph /  1.6km/h 57% 0.00in /  0mm 0.0 W/m2
00:21 69.6 °F /  20.9 °C 54.1 °F /  12.3 °C 29.70in /  1005.6hPa Calm   2.0mph /  3.2km/h 58% 0.00in /  0mm 0.0 W/m2
00:27 69.6 °F /  20.9 °C 54.1 °F /  12.3 °C 29.71in /  1006hPa East 0.9mph /  1.4km/h 3.0mph /  4.8km/h 58% 0.00in /  0mm 0.0 W/m2
00:32 69.6 °F /  20.9 °C 54.7 °F /  12.6 °C 29.71in /  1006hPa Calm   4.0mph /  6.4km/h 59% 0.00in /  0mm 0.0 W/m2
00:37 69.4 °F /  20.8 °C 59.5 °F /  15.3 °C 29.72in /  1006.3hPa NNE 6.9mph /  11.1km/h 7.0mph /  11.3km/h 71% 0.12in /  3.05mm 0.0 W/m2
00:42 68.0 °F /  20 °C 58.6 °F /  14.8 °C 29.71in /  1006hPa ESE 2.9mph /  4.7km/h 8.0mph /  12.9km/h 72% 0.14in /  3.56mm 0.0 W/m2
00:48 66.6 °F /  19.2 °C 58.1 °F /  14.5 °C 29.71in /  1006hPa Calm   8.0mph /  12.9km/h 74% 0.20in /  5.08mm 0.0 W/m2
00:53 65.1 °F /  18.4 °C 58.5 °F /  14.7 °C 29.71in /  1006hPa Calm   3.0mph /  4.8km/h 79% 0.21in /  5.33mm 0.0 W/m2
00:58 64.2 °F /  17.9 °C 57.9 °F /  14.4 °C 29.70in /  1005.6hPa Calm   5.0mph /  8km/h 80% 0.21in /  5.33mm 0.0 W/m2
01:04 63.9 °F /  17.7 °C 58.6 °F /  14.8 °C 29.71in /  1006hPa NE 0.9mph /  1.4km/h 2.0mph /  3.2km/h 83% 0.22in /  5.59mm 0.0 W/m2
01:09 63.1 °F /  17.3 °C 57.9 °F /  14.4 °C 29.70in /  1005.6hPa Calm   1.0mph /  1.6km/h 83% 0.24in /  6.1mm 0.0 W/m2
01:14 63.0 °F /  17.2 °C 58.5 °F /  14.7 °C 29.69in /  1005.3hPa Calm     85% 0.24in /  6.1mm 0.0 W/m2
01:20 62.8 °F /  17.1 °C 58.5 °F /  14.7 °C 29.69in /  1005.3hPa Calm   2.0mph /  3.2km/h 86% 0.24in /  6.1mm 0.0 W/m2
01:26 62.6 °F /  17 °C 58.3 °F /  14.6 °C 29.69in /  1005.3hPa Calm   2.0mph /  3.2km/h 86% 0.24in /  6.1mm 0.0 W/m2
01:30 62.4 °F /  16.9 °C 58.5 °F /  14.7 °C 29.68in /  1005hPa Calm   1.0mph /  1.6km/h 87% 0.24in /  6.1mm 0.0 W/m2
01:36 62.4 °F /  16.9 °C 58.5 °F /  14.7 °C 29.69in /  1005.3hPa SSE 2.0mph /  3.2km/h 5.0mph /  8km/h 87% 0.20in /  5.08mm 0.0 W/m2
01:40 62.4 °F /  16.9 °C 58.5 °F /  14.7 °C 29.68in /  1005hPa Calm   1.0mph /  1.6km/h 87% 0.10in /  2.54mm 0.0 W/m2
01:45 62.4 °F /  16.9 °C 58.8 °F /  14.9 °C 29.68in /  1005hPa Calm   1.0mph /  1.6km/h 88% 0.06in /  1.52mm 0.0 W/m2
01:50 62.8 °F /  17.1 °C 59.7 °F /  15.4 °C 29.68in /  1005hPa Calm   1.0mph /  1.6km/h 90% 0.02in /  0.51mm 0.0 W/m2
01:55 62.8 °F /  17.1 °C 59.7 °F /  15.4 °C 29.69in /  1005.3hPa Calm     90% 0.02in /  0.51mm 0.0 W/m2
02:01 63.0 °F /  17.2 °C 59.9 °F /  15.5 °C 29.68in /  1005hPa Calm     90% 0.02in /  0.51mm 0.0 W/m2
02:06 63.1 °F /  17.3 °C 60.1 °F /  15.6 °C 29.68in /  1005hPa Calm     90% 0.00in /  0mm 0.0 W/m2
02:11 63.3 °F /  17.4 °C 60.6 °F /  15.9 °C 29.67in /  1004.6hPa Calm   1.0mph /  1.6km/h 91% 0.01in /  0.25mm 0.0 W/m2
02:16 63.3 °F /  17.4 °C 60.6 °F /  15.9 °C 29.67in /  1004.6hPa Calm   2.0mph /  3.2km/h 91% 0.01in /  0.25mm 0.0 W/m2
02:21 63.7 °F /  17.6 °C 61.0 °F /  16.1 °C 29.67in /  1004.6hPa Calm   1.0mph /  1.6km/h 91% 0.01in /  0.25mm 0.0 W/m2
02:26 63.7 °F /  17.6 °C 61.0 °F /  16.1 °C 29.67in /  1004.6hPa Calm     91% 0.01in /  0.25mm 0.0 W/m2
02:32 63.7 °F /  17.6 °C 61.0 °F /  16.1 °C 29.66in /  1004.3hPa Calm     91% 0.01in /  0.25mm 0.0 W/m2
02:37 63.7 °F /  17.6 °C 61.0 °F /  16.1 °C 29.66in /  1004.3hPa Calm     91% 0.01in /  0.25mm 0.0 W/m2
02:42 63.7 °F /  17.6 °C 61.0 °F /  16.1 °C 29.66in /  1004.3hPa SSW 0.9mph /  1.4km/h 2.0mph /  3.2km/h 91% 0.01in /  0.25mm 0.0 W/m2
02:48 63.9 °F /  17.7 °C 61.2 °F /  16.2 °C 29.65in /  1003.9hPa Calm     91% 0.01in /  0.25mm 0.0 W/m2
02:53 63.7 °F /  17.6 °C 61.0 °F /  16.1 °C 29.65in /  1003.9hPa Calm   1.0mph /  1.6km/h 91% 0.01in /  0.25mm 0.0 W/m2
02:58 63.7 °F /  17.6 °C 60.6 °F /  15.9 °C 29.65in /  1003.9hPa Calm     90% 0.01in /  0.25mm 0.0 W/m2
03:04 63.7 °F /  17.6 °C 61.0 °F /  16.1 °C 29.65in /  1003.9hPa Calm     91% 0.01in /  0.25mm 0.0 W/m2
03:09 63.7 °F /  17.6 °C 61.0 °F /  16.1 °C 29.65in /  1003.9hPa Calm     91% 0.00in /  0mm 0.0 W/m2
03:14 63.7 °F /  17.6 °C 61.0 °F /  16.1 °C 29.65in /  1003.9hPa Calm     91% 0.00in /  0mm 0.0 W/m2
03:20 63.5 °F /  17.5 °C 60.8 °F /  16 °C 29.65in /  1003.9hPa Calm     91% 0.00in /  0mm 0.0 W/m2
03:25 63.5 °F /  17.5 °C 60.8 °F /  16 °C 29.65in /  1003.9hPa Calm     91% 0.00in /  0mm 0.0 W/m2
03:30 63.5 °F /  17.5 °C 60.8 °F /  16 °C 29.65in /  1003.9hPa Calm     91% 0.00in /  0mm 0.0 W/m2
03:36 63.5 °F /  17.5 °C 61.2 °F /  16.2 °C 29.65in /  1003.9hPa Calm     92% 0.00in /  0mm 0.0 W/m2
03:41 63.3 °F /  17.4 °C 61.0 °F /  16.1 °C 29.65in /  1003.9hPa Calm     92% 0.00in /  0mm 0.0 W/m2
03:46 63.3 °F /  17.4 °C 60.6 °F /  15.9 °C 29.65in /  1003.9hPa Calm     91% 0.00in /  0mm 0.0 W/m2
03:52 63.3 °F /  17.4 °C 60.6 °F /  15.9 °C 29.65in /  1003.9hPa Calm     91% 0.00in /  0mm 0.0 W/m2
03:57 63.1 °F /  17.3 °C 60.4 °F /  15.8 °C 29.65in /  1003.9hPa Calm     91% 0.00in /  0mm 0.0 W/m2
04:02 63.1 °F /  17.3 °C 60.4 °F /  15.8 °C 29.65in /  1003.9hPa Calm     91% 0.00in /  0mm 0.0 W/m2
04:08 63.0 °F /  17.2 °C 59.9 °F /  15.5 °C 29.65in /  1003.9hPa Calm     90% 0.00in /  0mm 0.0 W/m2
04:13 63.0 °F /  17.2 °C 59.9 °F /  15.5 °C 29.65in /  1003.9hPa Calm     90% 0.00in /  0mm 0.0 W/m2
04:18 63.0 °F /  17.2 °C 59.9 °F /  15.5 °C 29.65in /  1003.9hPa Calm     90% 0.00in /  0mm 0.0 W/m2
04:24 62.8 °F /  17.1 °C 59.7 °F /  15.4 °C 29.65in /  1003.9hPa Calm     90% 0.00in /  0mm 0.0 W/m2
04:29 62.8 °F /  17.1 °C 59.7 °F /  15.4 °C 29.64in /  1003.6hPa Calm     90% 0.00in /  0mm 0.0 W/m2
04:34 62.8 °F /  17.1 °C 59.7 °F /  15.4 °C 29.64in /  1003.6hPa Calm     90% 0.00in /  0mm 0.0 W/m2
04:40 62.6 °F /  17 °C 59.9 °F /  15.5 °C 29.64in /  1003.6hPa Calm     91% 0.00in /  0mm 0.0 W/m2
04:45 62.4 °F /  16.9 °C 59.4 °F /  15.2 °C 29.65in /  1003.9hPa Calm     90% 0.00in /  0mm 0.0 W/m2
04:50 62.4 °F /  16.9 °C 59.4 °F /  15.2 °C 29.65in /  1003.9hPa Calm     90% 0.00in /  0mm 0.0 W/m2
04:56 62.2 °F /  16.8 °C 59.0 °F /  15 °C 29.65in /  1003.9hPa Calm     89% 0.00in /  0mm 0.0 W/m2
05:01 62.2 °F /  16.8 °C 59.0 °F /  15 °C 29.65in /  1003.9hPa Calm     89% 0.00in /  0mm 0.0 W/m2
05:06 62.1 °F /  16.7 °C 58.8 °F /  14.9 °C 29.65in /  1003.9hPa Calm     89% 0.00in /  0mm 0.0 W/m2
05:12 62.1 °F /  16.7 °C 58.8 °F /  14.9 °C 29.65in /  1003.9hPa Calm     89% 0.00in /  0mm 0.0 W/m2
05:17 61.9 °F /  16.6 °C 58.6 °F /  14.8 °C 29.65in /  1003.9hPa Calm     89% 0.00in /  0mm 0.0 W/m2
05:22 61.9 °F /  16.6 °C 58.6 °F /  14.8 °C 29.65in /  1003.9hPa Calm     89% 0.00in /  0mm 0.0 W/m2
05:28 61.5 °F /  16.4 °C 58.3 °F /  14.6 °C 29.65in /  1003.9hPa Calm     89% 0.00in /  0mm 0.0 W/m2
05:33 61.3 °F /  16.3 °C 58.1 °F /  14.5 °C 29.65in /  1003.9hPa Calm     89% 0.00in /  0mm 0.0 W/m2
05:38 61.3 °F /  16.3 °C 58.1 °F /  14.5 °C 29.65in /  1003.9hPa Calm     89% 0.00in /  0mm 0.0 W/m2
05:44 61.3 °F /  16.3 °C 58.1 °F /  14.5 °C 29.65in /  1003.9hPa Calm     89% 0.00in /  0mm 0.0 W/m2
05:49 61.3 °F /  16.3 °C 58.5 °F /  14.7 °C 29.65in /  1003.9hPa Calm     90% 0.00in /  0mm 0.0 W/m2
05:54 61.2 °F /  16.2 °C 57.9 °F /  14.4 °C 29.65in /  1003.9hPa Calm     89% 0.00in /  0mm 0.0 W/m2
06:00 61.0 °F /  16.1 °C 57.7 °F /  14.3 °C 29.65in /  1003.9hPa Calm     89% 0.00in /  0mm 0.0 W/m2
06:05 60.8 °F /  16 °C 56.8 °F /  13.8 °C 29.65in /  1003.9hPa Calm     87% 0.00in /  0mm 0.0 W/m2
06:10 60.6 °F /  15.9 °C 56.7 °F /  13.7 °C 29.65in /  1003.9hPa Calm     87% 0.00in /  0mm 0.0 W/m2
06:16 60.4 °F /  15.8 °C 56.5 °F /  13.6 °C 29.65in /  1003.9hPa Calm     87% 0.00in /  0mm 0.0 W/m2
06:21 60.3 °F /  15.7 °C 56.7 °F /  13.7 °C 29.65in /  1003.9hPa Calm     88% 0.00in /  0mm 0.0 W/m2
06:26 60.1 °F /  15.6 °C 56.1 °F /  13.4 °C 29.65in /  1003.9hPa Calm     87% 0.00in /  0mm 0.0 W/m2
06:31 60.1 °F /  15.6 °C 56.1 °F /  13.4 °C 29.66in /  1004.3hPa Calm     87% 0.00in /  0mm 0.0 W/m2
06:36 59.9 °F /  15.5 °C 56.3 °F /  13.5 °C 29.66in /  1004.3hPa Calm     88% 0.00in /  0mm 0.0 W/m2
06:41 59.7 °F /  15.4 °C 55.8 °F /  13.2 °C 29.66in /  1004.3hPa Calm     87% 0.00in /  0mm 0.0 W/m2
06:46 59.7 °F /  15.4 °C 56.1 °F /  13.4 °C 29.66in /  1004.3hPa Calm     88% 0.00in /  0mm 0.0 W/m2
06:51 59.7 °F /  15.4 °C 56.1 °F /  13.4 °C 29.67in /  1004.6hPa Calm     88% 0.00in /  0mm 0.0 W/m2
06:56 59.7 °F /  15.4 °C 56.5 °F /  13.6 °C 29.67in /  1004.6hPa Calm     89% 0.00in /  0mm 7.0 W/m2
07:01 59.7 °F /  15.4 °C 56.5 °F /  13.6 °C 29.67in /  1004.6hPa Calm     89% 0.00in /  0mm 9.0 W/m2
07:06 59.9 °F /  15.5 °C 57.0 °F /  13.9 °C 29.67in /  1004.6hPa Calm     90% 0.00in /  0mm 12.0 W/m2
07:11 60.1 °F /  15.6 °C 56.8 °F /  13.8 °C 29.68in /  1005hPa NW 2.0mph /  3.2km/h 2.0mph /  3.2km/h 89% 0.00in /  0mm 14.0 W/m2
07:16 60.1 °F /  15.6 °C 56.1 °F /  13.4 °C 29.68in /  1005hPa Calm   2.0mph /  3.2km/h 87% 0.00in /  0mm 16.0 W/m2
07:22 60.3 °F /  15.7 °C 56.1 °F /  13.4 °C 29.68in /  1005hPa Calm   4.0mph /  6.4km/h 86% 0.00in /  0mm 19.0 W/m2
07:27 60.4 °F /  15.8 °C 56.5 °F /  13.6 °C 29.68in /  1005hPa NE 2.0mph /  3.2km/h 5.0mph /  8km/h 87% 0.00in /  0mm 21.0 W/m2
07:32 60.6 °F /  15.9 °C 56.5 °F /  13.6 °C 29.69in /  1005.3hPa NE 0.9mph /  1.4km/h 4.0mph /  6.4km/h 86% 0.00in /  0mm 23.0 W/m2
07:37 61.0 °F /  16.1 °C 56.8 °F /  13.8 °C 29.69in /  1005.3hPa NE 0.9mph /  1.4km/h 5.0mph /  8km/h 86% 0.00in /  0mm 25.0 W/m2
07:42 61.2 °F /  16.2 °C 57.0 °F /  13.9 °C 29.69in /  1005.3hPa Calm   4.0mph /  6.4km/h 86% 0.00in /  0mm 28.0 W/m2
07:47 61.5 °F /  16.4 °C 57.4 °F /  14.1 °C 29.69in /  1005.3hPa Calm   2.0mph /  3.2km/h 86% 0.00in /  0mm 30.0 W/m2
07:52 61.9 °F /  16.6 °C 57.4 °F /  14.1 °C 29.69in /  1005.3hPa East 0.9mph /  1.4km/h 3.0mph /  4.8km/h 85% 0.00in /  0mm 32.0 W/m2
07:57 62.1 °F /  16.7 °C 57.6 °F /  14.2 °C 29.69in /  1005.3hPa Calm   4.0mph /  6.4km/h 85% 0.00in /  0mm 33.0 W/m2
08:03 62.4 °F /  16.9 °C 57.2 °F /  14 °C 29.70in /  1005.6hPa Calm   1.0mph /  1.6km/h 83% 0.00in /  0mm 35.0 W/m2
08:08 63.1 °F /  17.3 °C 57.6 °F /  14.2 °C 29.70in /  1005.6hPa SE 0.9mph /  1.4km/h 4.0mph /  6.4km/h 82% 0.00in /  0mm 40.0 W/m2
08:13 63.7 °F /  17.6 °C 57.4 °F /  14.1 °C 29.70in /  1005.6hPa SE 0.9mph /  1.4km/h 3.0mph /  4.8km/h 80% 0.00in /  0mm 44.0 W/m2
08:18 64.4 °F /  18 °C 57.7 °F /  14.3 °C 29.70in /  1005.6hPa SE 2.0mph /  3.2km/h 2.0mph /  3.2km/h 79% 0.00in /  0mm 40.0 W/m2
08:23 64.9 °F /  18.3 °C 57.6 °F /  14.2 °C 29.70in /  1005.6hPa Calm   3.0mph /  4.8km/h 77% 0.00in /  0mm 44.0 W/m2
08:28 65.5 °F /  18.6 °C 57.7 °F /  14.3 °C 29.70in /  1005.6hPa ESE 0.9mph /  1.4km/h 4.0mph /  6.4km/h 76% 0.00in /  0mm 44.0 W/m2
08:33 66.2 °F /  19 °C 57.7 °F /  14.3 °C 29.70in /  1005.6hPa SE 0.9mph /  1.4km/h 2.0mph /  3.2km/h 74% 0.00in /  0mm 46.0 W/m2
08:38 66.9 °F /  19.4 °C 57.2 °F /  14 °C 29.70in /  1005.6hPa ESE 2.0mph /  3.2km/h 5.0mph /  8km/h 71% 0.00in /  0mm 47.0 W/m2
08:43 67.6 °F /  19.8 °C 56.7 °F /  13.7 °C 29.70in /  1005.6hPa Calm   8.0mph /  12.9km/h 68% 0.00in /  0mm 49.0 W/m2
08:49 68.4 °F /  20.2 °C 57.0 °F /  13.9 °C 29.70in /  1005.6hPa Calm   2.0mph /  3.2km/h 67% 0.00in /  0mm 51.0 W/m2
08:54 68.9 °F /  20.5 °C 57.0 °F /  13.9 °C 29.70in /  1005.6hPa Calm   4.0mph /  6.4km/h 66% 0.00in /  0mm 56.0 W/m2
08:59 69.4 °F /  20.8 °C 56.7 °F /  13.7 °C 29.70in /  1005.6hPa Calm   2.0mph /  3.2km/h 64% 0.00in /  0mm 297.0 W/m2
09:04 70.0 °F /  21.1 °C 56.8 °F /  13.8 °C 29.70in /  1005.6hPa NE 0.9mph /  1.4km/h 3.0mph /  4.8km/h 63% 0.00in /  0mm 446.0 W/m2
09:09 70.3 °F /  21.3 °C 56.3 °F /  13.5 °C 29.70in /  1005.6hPa Calm   2.0mph /  3.2km/h 61% 0.00in /  0mm 494.0 W/m2
09:14 70.7 °F /  21.5 °C 55.2 °F /  12.9 °C 29.70in /  1005.6hPa Calm   2.0mph /  3.2km/h 58% 0.00in /  0mm 522.0 W/m2
09:19 71.1 °F /  21.7 °C 55.9 °F /  13.3 °C 29.70in /  1005.6hPa SSW 0.9mph /  1.4km/h 1.0mph /  1.6km/h 59% 0.00in /  0mm 541.0 W/m2
09:24 71.6 °F /  22 °C 55.6 °F /  13.1 °C 29.70in /  1005.6hPa Calm     57% 0.00in /  0mm 559.0 W/m2
09:30 72.0 °F /  22.2 °C 54.9 °F /  12.7 °C 29.70in /  1005.6hPa Calm   3.0mph /  4.8km/h 55% 0.00in /  0mm 578.0 W/m2
09:35 72.5 °F /  22.5 °C 54.3 °F /  12.4 °C 29.70in /  1005.6hPa Calm   1.0mph /  1.6km/h 53% 0.00in /  0mm 596.0 W/m2
09:40 73.2 °F /  22.9 °C 55.6 °F /  13.1 °C 29.70in /  1005.6hPa Calm   1.0mph /  1.6km/h 54% 0.00in /  0mm 613.0 W/m2
09:45 73.9 °F /  23.3 °C 54.7 °F /  12.6 °C 29.70in /  1005.6hPa Calm     51% 0.00in /  0mm 635.0 W/m2
09:50 74.7 °F /  23.7 °C 53.6 °F /  12 °C 29.70in /  1005.6hPa SE 2.0mph /  3.2km/h 5.0mph /  8km/h 48% 0.00in /  0mm 652.0 W/m2
09:55 75.6 °F /  24.2 °C 54.5 °F /  12.5 °C 29.70in /  1005.6hPa SE 0.9mph /  1.4km/h 3.0mph /  4.8km/h 48% 0.00in /  0mm 671.0 W/m2
10:00 76.5 °F /  24.7 °C 53.6 °F /  12 °C 29.70in /  1005.6hPa Calm   2.0mph /  3.2km/h 45% 0.00in /  0mm 689.0 W/m2
10:05 77.4 °F /  25.2 °C 54.3 °F /  12.4 °C 29.70in /  1005.6hPa Calm   3.0mph /  4.8km/h 45% 0.00in /  0mm 705.0 W/m2
10:10 78.4 °F /  25.8 °C 54.7 °F /  12.6 °C 29.70in /  1005.6hPa Calm   3.0mph /  4.8km/h 44% 0.00in /  0mm 719.0 W/m2
10:15 79.2 °F /  26.2 °C 53.4 °F /  11.9 °C 29.70in /  1005.6hPa NE 0.9mph /  1.4km/h 3.0mph /  4.8km/h 41% 0.00in /  0mm 735.0 W/m2
10:20 79.7 °F /  26.5 °C 53.2 °F /  11.8 °C 29.71in /  1006hPa NE 0.9mph /  1.4km/h 3.0mph /  4.8km/h 40% 0.00in /  0mm 747.0 W/m2
10:26 80.1 °F /  26.7 °C 52.9 °F /  11.6 °C 29.71in /  1006hPa Calm   1.0mph /  1.6km/h 39% 0.00in /  0mm 754.0 W/m2
10:31 80.8 °F /  27.1 °C 53.6 °F /  12 °C 29.71in /  1006hPa NE 2.0mph /  3.2km/h 4.0mph /  6.4km/h 39% 0.00in /  0mm 779.0 W/m2
10:36 81.0 °F /  27.2 °C 52.9 °F /  11.6 °C 29.71in /  1006hPa ENE 0.9mph /  1.4km/h 6.0mph /  9.7km/h 38% 0.00in /  0mm 803.0 W/m2
10:41 81.3 °F /  27.4 °C 54.0 °F /  12.2 °C 29.70in /  1005.6hPa NE 2.0mph /  3.2km/h 4.0mph /  6.4km/h 39% 0.00in /  0mm 814.0 W/m2
10:46 81.9 °F /  27.7 °C 53.8 °F /  12.1 °C 29.70in /  1005.6hPa NNE 0.9mph /  1.4km/h 3.0mph /  4.8km/h 38% 0.00in /  0mm 874.0 W/m2
10:51 82.0 °F /  27.8 °C 54.7 °F /  12.6 °C 29.70in /  1005.6hPa NW 2.0mph /  3.2km/h 2.0mph /  3.2km/h 39% 0.00in /  0mm 856.0 W/m2
10:56 82.6 °F /  28.1 °C 53.6 °F /  12 °C 29.70in /  1005.6hPa North 2.0mph /  3.2km/h 6.0mph /  9.7km/h 37% 0.00in /  0mm 867.0 W/m2
11:01 82.8 °F /  28.2 °C 53.8 °F /  12.1 °C 29.70in /  1005.6hPa NW 0.9mph /  1.4km/h 2.0mph /  3.2km/h 37% 0.00in /  0mm 844.0 W/m2
11:06 82.8 °F /  28.2 °C 54.5 °F /  12.5 °C 29.70in /  1005.6hPa South 0.9mph /  1.4km/h 6.0mph /  9.7km/h 38% 0.00in /  0mm 220.0 W/m2
11:09 82.6 °F /  28.1 °C 53.6 °F /  12 °C 29.70in /  1005.6hPa South 0.9mph /  1.4km/h 4.0mph /  6.4km/h 37% 0.00in /  0mm 997.0 W/m2
11:12 82.2 °F /  27.9 °C 53.4 °F /  11.9 °C 29.70in /  1005.6hPa SSE 0.9mph /  1.4km/h 5.0mph /  8km/h 37% 0.00in /  0mm 962.0 W/m2
11:18 81.9 °F /  27.7 °C 54.5 °F /  12.5 °C 29.70in /  1005.6hPa SSE 2.0mph /  3.2km/h 3.0mph /  4.8km/h 39% 0.00in /  0mm 316.0 W/m2
11:23 81.7 °F /  27.6 °C 54.3 °F /  12.4 °C 29.70in /  1005.6hPa SSE 2.9mph /  4.7km/h 4.0mph /  6.4km/h 39% 0.00in /  0mm 1007.0 W/m2
11:28 81.7 °F /  27.6 °C 53.6 °F /  12 °C 29.70in /  1005.6hPa Calm   5.0mph /  8km/h 38% 0.00in /  0mm 244.0 W/m2
11:33 81.7 °F /  27.6 °C 53.6 °F /  12 °C 29.70in /  1005.6hPa North 2.0mph /  3.2km/h 5.0mph /  8km/h 38% 0.00in /  0mm 1167.0 W/m2
11:38 82.2 °F /  27.9 °C 52.5 °F /  11.4 °C 29.70in /  1005.6hPa ENE 2.9mph /  4.7km/h 7.0mph /  11.3km/h 36% 0.00in /  0mm 1116.0 W/m2
11:43 82.8 °F /  28.2 °C 54.5 °F /  12.5 °C 29.69in /  1005.3hPa Calm   1.0mph /  1.6km/h 38% 0.00in /  0mm 1085.0 W/m2
11:48 83.5 °F /  28.6 °C 53.8 °F /  12.1 °C 29.69in /  1005.3hPa Calm   1.0mph /  1.6km/h 36% 0.00in /  0mm 1053.0 W/m2
11:53 83.8 °F /  28.8 °C 54.0 °F /  12.2 °C 29.69in /  1005.3hPa SE 4.0mph /  6.4km/h 10.0mph /  16.1km/h 36% 0.00in /  0mm 1039.0 W/m2
11:58 84.6 °F /  29.2 °C 53.1 °F /  11.7 °C 29.69in /  1005.3hPa East 6.9mph /  11.1km/h 11.0mph /  17.7km/h 34% 0.00in /  0mm 1037.0 W/m2
12:03 84.9 °F /  29.4 °C 52.5 °F /  11.4 °C 29.68in /  1005hPa NE 6.9mph /  11.1km/h 11.0mph /  17.7km/h 33% 0.00in /  0mm 1032.0 W/m2
12:09 85.3 °F /  29.6 °C 52.9 °F /  11.6 °C 29.68in /  1005hPa ESE 2.0mph /  3.2km/h 8.0mph /  12.9km/h 33% 0.00in /  0mm 174.0 W/m2
12:14 85.3 °F /  29.6 °C 52.2 °F /  11.2 °C 29.68in /  1005hPa NNE 4.0mph /  6.4km/h 11.0mph /  17.7km/h 32% 0.00in /  0mm 1056.0 W/m2
12:19 85.3 °F /  29.6 °C 52.2 °F /  11.2 °C 29.68in /  1005hPa East 4.9mph /  7.9km/h 8.0mph /  12.9km/h 32% 0.00in /  0mm 1071.0 W/m2
12:24 85.3 °F /  29.6 °C 52.2 °F /  11.2 °C 29.68in /  1005hPa ESE 8.9mph /  14.3km/h 9.0mph /  14.5km/h 32% 0.00in /  0mm 1067.0 W/m2
12:29 85.3 °F /  29.6 °C 51.3 °F /  10.7 °C 29.68in /  1005hPa East 0.9mph /  1.4km/h 7.0mph /  11.3km/h 31% 0.00in /  0mm 160.0 W/m2
12:34 84.9 °F /  29.4 °C 50.0 °F /  10 °C 29.68in /  1005hPa South 2.9mph /  4.7km/h 14.0mph /  22.5km/h 30% 0.00in /  0mm 1081.0 W/m2
12:39 84.7 °F /  29.3 °C 49.8 °F /  9.9 °C 29.67in /  1004.6hPa SSE 4.9mph /  7.9km/h 10.0mph /  16.1km/h 30% 0.00in /  0mm 1078.0 W/m2
12:44 85.1 °F /  29.5 °C 51.1 °F /  10.6 °C 29.67in /  1004.6hPa ESE 4.9mph /  7.9km/h 7.0mph /  11.3km/h 31% 0.00in /  0mm 1081.0 W/m2
12:50 85.6 °F /  29.8 °C 51.6 °F /  10.9 °C 29.67in /  1004.6hPa SSE 0.9mph /  1.4km/h 5.0mph /  8km/h 31% 0.00in /  0mm 1079.0 W/m2
12:55 86.4 °F /  30.2 °C 51.3 °F /  10.7 °C 29.67in /  1004.6hPa Calm   9.0mph /  14.5km/h 30% 0.00in /  0mm 1069.0 W/m2
13:00 86.7 °F /  30.4 °C 50.7 °F /  10.4 °C 29.67in /  1004.6hPa NE 2.0mph /  3.2km/h 4.0mph /  6.4km/h 29% 0.00in /  0mm 1062.0 W/m2
13:05 87.3 °F /  30.7 °C 52.0 °F /  11.1 °C 29.66in /  1004.3hPa SSE 10.1mph /  16.3km/h 12.0mph /  19.3km/h 30% 0.00in /  0mm 1076.0 W/m2
13:10 87.1 °F /  30.6 °C 50.9 °F /  10.5 °C 29.66in /  1004.3hPa NNE 0.9mph /  1.4km/h 6.0mph /  9.7km/h 29% 0.00in /  0mm 179.0 W/m2
13:15 86.9 °F /  30.5 °C 50.9 °F /  10.5 °C 29.66in /  1004.3hPa West 0.9mph /  1.4km/h 9.0mph /  14.5km/h 29% 0.00in /  0mm 1092.0 W/m2
13:20 87.1 °F /  30.6 °C 50.9 °F /  10.5 °C 29.65in /  1003.9hPa SE 6.0mph /  9.7km/h 9.0mph /  14.5km/h 29% 0.00in /  0mm 1083.0 W/m2
13:25 87.3 °F /  30.7 °C 52.9 °F /  11.6 °C 29.65in /  1003.9hPa SE 0.9mph /  1.4km/h 7.0mph /  11.3km/h 31% 0.00in /  0mm 1121.0 W/m2
13:30 87.8 °F /  31 °C 51.6 °F /  10.9 °C 29.65in /  1003.9hPa NNW 4.0mph /  6.4km/h 6.0mph /  9.7km/h 29% 0.00in /  0mm 1136.0 W/m2
13:35 88.3 °F /  31.3 °C 52.0 °F /  11.1 °C 29.65in /  1003.9hPa East 8.9mph /  14.3km/h 12.0mph /  19.3km/h 29% 0.00in /  0mm 1164.0 W/m2
13:41 87.6 °F /  30.9 °C 51.4 °F /  10.8 °C 29.65in /  1003.9hPa SE 2.9mph /  4.7km/h 7.0mph /  11.3km/h 29% 0.00in /  0mm 209.0 W/m2
13:46 86.5 °F /  30.3 °C 49.6 °F /  9.8 °C 29.65in /  1003.9hPa East 4.0mph /  6.4km/h 6.0mph /  9.7km/h 28% 0.00in /  0mm 209.0 W/m2
13:51 86.2 °F /  30.1 °C 51.1 °F /  10.6 °C 29.64in /  1003.6hPa NNE 6.9mph /  11.1km/h 7.0mph /  11.3km/h 30% 0.00in /  0mm 167.0 W/m2
13:56 85.6 °F /  29.8 °C 49.8 °F /  9.9 °C 29.64in /  1003.6hPa NE 4.0mph /  6.4km/h 9.0mph /  14.5km/h 29% 0.00in /  0mm 230.0 W/m2
14:01 85.5 °F /  29.7 °C 51.4 °F /  10.8 °C 29.64in /  1003.6hPa NE 2.0mph /  3.2km/h 7.0mph /  11.3km/h 31% 0.00in /  0mm 185.0 W/m2
14:06 85.6 °F /  29.8 °C 50.7 °F /  10.4 °C 29.64in /  1003.6hPa ENE 4.9mph /  7.9km/h 8.0mph /  12.9km/h 30% 0.00in /  0mm 1076.0 W/m2
14:11 86.4 °F /  30.2 °C 50.4 °F /  10.2 °C 29.63in /  1003.3hPa East 4.9mph /  7.9km/h 10.0mph /  16.1km/h 29% 0.00in /  0mm 355.0 W/m2
14:16 86.7 °F /  30.4 °C 50.7 °F /  10.4 °C 29.63in /  1003.3hPa SE 0.9mph /  1.4km/h 9.0mph /  14.5km/h 29% 0.00in /  0mm 243.0 W/m2
14:21 86.5 °F /  30.3 °C 50.5 °F /  10.3 °C 29.63in /  1003.3hPa East 10.1mph /  16.3km/h 11.0mph /  17.7km/h 29% 0.00in /  0mm 234.0 W/m2
14:26 86.2 °F /  30.1 °C 48.2 °F /  9 °C 29.63in /  1003.3hPa ESE 4.0mph /  6.4km/h 9.0mph /  14.5km/h 27% 0.00in /  0mm 195.0 W/m2
14:32 85.8 °F /  29.9 °C 48.9 °F /  9.4 °C 29.62in /  1002.9hPa SSE 0.9mph /  1.4km/h 3.0mph /  4.8km/h 28% 0.00in /  0mm 976.0 W/m2
14:37 86.2 °F /  30.1 °C 47.3 °F /  8.5 °C 29.62in /  1002.9hPa ENE 2.9mph /  4.7km/h 9.0mph /  14.5km/h 26% 0.00in /  0mm 935.0 W/m2
14:42 87.1 °F /  30.6 °C 48.0 °F /  8.9 °C 29.62in /  1002.9hPa NE 4.0mph /  6.4km/h 7.0mph /  11.3km/h 26% 0.00in /  0mm 919.0 W/m2
14:47 87.8 °F /  31 °C 48.6 °F /  9.2 °C 29.62in /  1002.9hPa ESE 2.0mph /  3.2km/h 9.0mph /  14.5km/h 26% 0.00in /  0mm 933.0 W/m2
14:52 88.3 °F /  31.3 °C 49.1 °F /  9.5 °C 29.61in /  1002.6hPa ENE 2.0mph /  3.2km/h 11.0mph /  17.7km/h 26% 0.00in /  0mm 923.0 W/m2
14:57 88.5 °F /  31.4 °C 48.2 °F /  9 °C 29.61in /  1002.6hPa East 4.9mph /  7.9km/h 7.0mph /  11.3km/h 25% 0.00in /  0mm 911.0 W/m2
15:02 89.1 °F /  31.7 °C 46.4 °F /  8 °C 29.61in /  1002.6hPa SE 4.0mph /  6.4km/h 10.0mph /  16.1km/h 23% 0.00in /  0mm 891.0 W/m2
15:07 89.6 °F /  32 °C 48.0 °F /  8.9 °C 29.61in /  1002.6hPa ESE 2.0mph /  3.2km/h 9.0mph /  14.5km/h 24% 0.00in /  0mm 909.0 W/m2
15:12 90.1 °F /  32.3 °C 48.6 °F /  9.2 °C 29.60in /  1002.3hPa NE 6.0mph /  9.7km/h 7.0mph /  11.3km/h 24% 0.00in /  0mm 942.0 W/m2
15:18 90.3 °F /  32.4 °C 46.4 °F /  8 °C 29.60in /  1002.3hPa Calm   8.0mph /  12.9km/h 22% 0.00in /  0mm 997.0 W/m2
15:23 90.7 °F /  32.6 °C 46.6 °F /  8.1 °C 29.60in /  1002.3hPa ENE 4.0mph /  6.4km/h 10.0mph /  16.1km/h 22% 0.00in /  0mm 940.0 W/m2
15:28 91.0 °F /  32.8 °C 48.0 °F /  8.9 °C 29.60in /  1002.3hPa ESE 2.0mph /  3.2km/h 5.0mph /  8km/h 23% 0.00in /  0mm 947.0 W/m2
15:33 91.0 °F /  32.8 °C 48.0 °F /  8.9 °C 29.60in /  1002.3hPa East 2.9mph /  4.7km/h 9.0mph /  14.5km/h 23% 0.00in /  0mm 243.0 W/m2
15:38 90.7 °F /  32.6 °C 47.8 °F /  8.8 °C 29.59in /  1001.9hPa SSE 2.9mph /  4.7km/h 6.0mph /  9.7km/h 23% 0.00in /  0mm 216.0 W/m2
15:43 89.4 °F /  31.9 °C 50.0 °F /  10 °C 29.59in /  1001.9hPa SE 11.0mph /  17.7km/h 14.0mph /  22.5km/h 26% 0.00in /  0mm 223.0 W/m2
15:48 88.0 °F /  31.1 °C 49.8 °F /  9.9 °C 29.59in /  1001.9hPa SE 8.1mph /  13km/h 13.0mph /  20.9km/h 27% 0.00in /  0mm 204.0 W/m2
15:53 87.1 °F /  30.6 °C 50.0 °F /  10 °C 29.59in /  1001.9hPa ESE 10.1mph /  16.3km/h 11.0mph /  17.7km/h 28% 0.00in /  0mm 766.0 W/m2
15:58 86.7 °F /  30.4 °C 48.7 °F /  9.3 °C 29.59in /  1001.9hPa East 6.0mph /  9.7km/h 10.0mph /  16.1km/h 27% 0.00in /  0mm 239.0 W/m2
16:03 86.7 °F /  30.4 °C 47.7 °F /  8.7 °C 29.59in /  1001.9hPa SE 11.0mph /  17.7km/h 14.0mph /  22.5km/h 26% 0.00in /  0mm 601.0 W/m2
16:08 87.4 °F /  30.8 °C 49.3 °F /  9.6 °C 29.59in /  1001.9hPa SSE 8.1mph /  13km/h 12.0mph /  19.3km/h 27% 0.00in /  0mm 719.0 W/m2
16:14 87.8 °F /  31 °C 49.6 °F /  9.8 °C 29.59in /  1001.9hPa South 2.0mph /  3.2km/h 12.0mph /  19.3km/h 27% 0.00in /  0mm 696.0 W/m2
16:19 88.2 °F /  31.2 °C 50.0 °F /  10 °C 29.59in /  1001.9hPa SSE 4.0mph /  6.4km/h 8.0mph /  12.9km/h 27% 0.00in /  0mm 698.0 W/m2
16:24 88.5 °F /  31.4 °C 49.3 °F /  9.6 °C 29.58in /  1001.6hPa SSE 2.0mph /  3.2km/h 9.0mph /  14.5km/h 26% 0.00in /  0mm 640.0 W/m2
16:29 88.9 °F /  31.6 °C 49.6 °F /  9.8 °C 29.58in /  1001.6hPa SSW 4.0mph /  6.4km/h 5.0mph /  8km/h 26% 0.00in /  0mm 107.0 W/m2
16:34 88.3 °F /  31.3 °C 49.1 °F /  9.5 °C 29.58in /  1001.6hPa SSW 0.9mph /  1.4km/h 5.0mph /  8km/h 26% 0.00in /  0mm 596.0 W/m2
16:39 88.3 °F /  31.3 °C 48.0 °F /  8.9 °C 29.58in /  1001.6hPa SW 0.9mph /  1.4km/h 5.0mph /  8km/h 25% 0.00in /  0mm 578.0 W/m2
16:44 88.2 °F /  31.2 °C 48.9 °F /  9.4 °C 29.58in /  1001.6hPa SE 4.9mph /  7.9km/h 8.0mph /  12.9km/h 26% 0.00in /  0mm 566.0 W/m2
16:49 88.3 °F /  31.3 °C 48.0 °F /  8.9 °C 29.57in /  1001.2hPa NNW 2.9mph /  4.7km/h 5.0mph /  8km/h 25% 0.00in /  0mm 564.0 W/m2
16:55 88.7 °F /  31.5 °C 49.5 °F /  9.7 °C 29.57in /  1001.2hPa WSW 2.9mph /  4.7km/h 4.0mph /  6.4km/h 26% 0.00in /  0mm 431.0 W/m2
17:00 88.9 °F /  31.6 °C 48.6 °F /  9.2 °C 29.56in /  1000.9hPa WNW 2.9mph /  4.7km/h 3.0mph /  4.8km/h 25% 0.00in /  0mm 520.0 W/m2
17:05 89.2 °F /  31.8 °C 48.7 °F /  9.3 °C 29.56in /  1000.9hPa SE 4.0mph /  6.4km/h 9.0mph /  14.5km/h 25% 0.00in /  0mm 552.0 W/m2
17:10 89.4 °F /  31.9 °C 50.0 °F /  10 °C 29.56in /  1000.9hPa ENE 2.9mph /  4.7km/h 7.0mph /  11.3km/h 26% 0.00in /  0mm 526.0 W/m2
17:15 90.1 °F /  32.3 °C 49.6 °F /  9.8 °C 29.57in /  1001.2hPa East 2.0mph /  3.2km/h 7.0mph /  11.3km/h 25% 0.00in /  0mm 478.0 W/m2
17:20 90.3 °F /  32.4 °C 48.6 °F /  9.2 °C 29.56in /  1000.9hPa ESE 4.0mph /  6.4km/h 11.0mph /  17.7km/h 24% 0.00in /  0mm 288.0 W/m2
17:25 89.8 °F /  32.1 °C 47.1 °F /  8.4 °C 29.57in /  1001.2hPa ESE 4.9mph /  7.9km/h 8.0mph /  12.9km/h 23% 0.00in /  0mm 95.0 W/m2
17:30 88.9 °F /  31.6 °C 47.5 °F /  8.6 °C 29.57in /  1001.2hPa East 6.9mph /  11.1km/h 9.0mph /  14.5km/h 24% 0.00in /  0mm 69.0 W/m2
17:35 88.0 °F /  31.1 °C 46.6 °F /  8.1 °C 29.57in /  1001.2hPa ENE 2.9mph /  4.7km/h 8.0mph /  12.9km/h 24% 0.00in /  0mm 67.0 W/m2
17:40 87.3 °F /  30.7 °C 47.1 °F /  8.4 °C 29.56in /  1000.9hPa SSE 0.9mph /  1.4km/h 4.0mph /  6.4km/h 25% 0.00in /  0mm 62.0 W/m2
17:46 86.7 °F /  30.4 °C 47.7 °F /  8.7 °C 29.57in /  1001.2hPa SE 2.0mph /  3.2km/h 5.0mph /  8km/h 26% 0.00in /  0mm 63.0 W/m2
17:51 86.4 °F /  30.2 °C 47.5 °F /  8.6 °C 29.57in /  1001.2hPa SE 2.0mph /  3.2km/h 7.0mph /  11.3km/h 26% 0.00in /  0mm 49.0 W/m2
17:56 85.8 °F /  29.9 °C 46.9 °F /  8.3 °C 29.57in /  1001.2hPa ENE 2.9mph /  4.7km/h 6.0mph /  9.7km/h 26% 0.00in /  0mm 39.0 W/m2
18:01 85.5 °F /  29.7 °C 46.6 °F /  8.1 °C 29.57in /  1001.2hPa East 2.0mph /  3.2km/h 5.0mph /  8km/h 26% 0.00in /  0mm 40.0 W/m2
18:06 85.3 °F /  29.6 °C 47.5 °F /  8.6 °C 29.57in /  1001.2hPa SE 2.0mph /  3.2km/h 2.0mph /  3.2km/h 27% 0.00in /  0mm 39.0 W/m2
18:11 84.9 °F /  29.4 °C 47.1 °F /  8.4 °C 29.57in /  1001.2hPa SE 2.0mph /  3.2km/h 3.0mph /  4.8km/h 27% 0.00in /  0mm 37.0 W/m2
18:16 84.7 °F /  29.3 °C 47.1 °F /  8.4 °C 29.57in /  1001.2hPa SE 0.9mph /  1.4km/h 1.0mph /  1.6km/h 27% 0.00in /  0mm 32.0 W/m2
18:21 84.6 °F /  29.2 °C 46.9 °F /  8.3 °C 29.57in /  1001.2hPa Calm   3.0mph /  4.8km/h 27% 0.00in /  0mm 23.0 W/m2
18:26 84.4 °F /  29.1 °C 46.8 °F /  8.2 °C 29.57in /  1001.2hPa SE 0.9mph /  1.4km/h 4.0mph /  6.4km/h 27% 0.00in /  0mm 19.0 W/m2
18:31 84.4 °F /  29.1 °C 46.8 °F /  8.2 °C 29.58in /  1001.6hPa Calm   3.0mph /  4.8km/h 27% 0.00in /  0mm 14.0 W/m2
18:37 84.0 °F /  28.9 °C 48.4 °F /  9.1 °C 29.58in /  1001.6hPa SW 6.0mph /  9.7km/h 7.0mph /  11.3km/h 29% 0.00in /  0mm 7.0 W/m2
18:42 83.1 °F /  28.4 °C 49.3 °F /  9.6 °C 29.59in /  1001.9hPa SW 2.0mph /  3.2km/h 5.0mph /  8km/h 31% 0.00in /  0mm 5.0 W/m2
18:47 82.6 °F /  28.1 °C 51.4 °F /  10.8 °C 29.59in /  1001.9hPa West 6.9mph /  11.1km/h 10.0mph /  16.1km/h 34% 0.00in /  0mm 5.0 W/m2
18:53 80.6 °F /  27 °C 52.0 °F /  11.1 °C 29.59in /  1001.9hPa WSW 2.0mph /  3.2km/h 5.0mph /  8km/h 37% 0.00in /  0mm 7.0 W/m2
18:58 79.3 °F /  26.3 °C 52.2 °F /  11.2 °C 29.59in /  1001.9hPa Calm   3.0mph /  4.8km/h 39% 0.00in /  0mm 7.0 W/m2
19:03 78.6 °F /  25.9 °C 52.9 °F /  11.6 °C 29.60in /  1002.3hPa West 0.9mph /  1.4km/h 6.0mph /  9.7km/h 41% 0.00in /  0mm 9.0 W/m2
19:08 78.1 °F /  25.6 °C 52.5 °F /  11.4 °C 29.59in /  1001.9hPa Calm   1.0mph /  1.6km/h 41% 0.00in /  0mm 7.0 W/m2
19:13 77.9 °F /  25.5 °C 52.3 °F /  11.3 °C 29.60in /  1002.3hPa Calm   1.0mph /  1.6km/h 41% 0.00in /  0mm 0.0 W/m2
19:18 77.7 °F /  25.4 °C 51.4 °F /  10.8 °C 29.61in /  1002.6hPa SSW 2.0mph /  3.2km/h 12.0mph /  19.3km/h 40% 0.00in /  0mm 0.0 W/m2
19:23 77.5 °F /  25.3 °C 51.3 °F /  10.7 °C 29.61in /  1002.6hPa SW 6.9mph /  11.1km/h 12.0mph /  19.3km/h 40% 0.00in /  0mm 0.0 W/m2
19:29 77.4 °F /  25.2 °C 51.8 °F /  11 °C 29.61in /  1002.6hPa SW 2.0mph /  3.2km/h 10.0mph /  16.1km/h 41% 0.00in /  0mm 0.0 W/m2
19:34 77.2 °F /  25.1 °C 51.6 °F /  10.9 °C 29.61in /  1002.6hPa SW 4.0mph /  6.4km/h 6.0mph /  9.7km/h 41% 0.00in /  0mm 0.0 W/m2
19:39 77.2 °F /  25.1 °C 51.6 °F /  10.9 °C 29.62in /  1002.9hPa WSW 8.1mph /  13km/h 10.0mph /  16.1km/h 41% 0.00in /  0mm 0.0 W/m2
19:44 77.0 °F /  25 °C 51.4 °F /  10.8 °C 29.62in /  1002.9hPa Calm   5.0mph /  8km/h 41% 0.00in /  0mm 0.0 W/m2
19:49 76.8 °F /  24.9 °C 51.3 °F /  10.7 °C 29.62in /  1002.9hPa SW 9.0mph /  14.5km/h 9.0mph /  14.5km/h 41% 0.00in /  0mm 0.0 W/m2
19:54 76.6 °F /  24.8 °C 51.8 °F /  11 °C 29.62in /  1002.9hPa South 2.0mph /  3.2km/h 6.0mph /  9.7km/h 42% 0.00in /  0mm 0.0 W/m2
19:59 76.3 °F /  24.6 °C 51.4 °F /  10.8 °C 29.62in /  1002.9hPa SW 0.9mph /  1.4km/h 8.0mph /  12.9km/h 42% 0.00in /  0mm 0.0 W/m2
20:04 75.9 °F /  24.4 °C 51.8 °F /  11 °C 29.62in /  1002.9hPa South 2.9mph /  4.7km/h 12.0mph /  19.3km/h 43% 0.00in /  0mm 0.0 W/m2
20:09 75.6 °F /  24.2 °C 51.4 °F /  10.8 °C 29.63in /  1003.3hPa SSW 6.0mph /  9.7km/h 10.0mph /  16.1km/h 43% 0.00in /  0mm 0.0 W/m2
20:15 75.4 °F /  24.1 °C 51.3 °F /  10.7 °C 29.63in /  1003.3hPa South 2.9mph /  4.7km/h 9.0mph /  14.5km/h 43% 0.00in /  0mm 0.0 W/m2
20:20 75.4 °F /  24.1 °C 51.3 °F /  10.7 °C 29.63in /  1003.3hPa Calm   6.0mph /  9.7km/h 43% 0.00in /  0mm 0.0 W/m2
20:25 75.0 °F /  23.9 °C 51.1 °F /  10.6 °C 29.63in /  1003.3hPa SSW 4.0mph /  6.4km/h 6.0mph /  9.7km/h 43% 0.00in /  0mm 0.0 W/m2
20:30 74.8 °F /  23.8 °C 50.9 °F /  10.5 °C 29.63in /  1003.3hPa SSW 4.0mph /  6.4km/h 7.0mph /  11.3km/h 43% 0.00in /  0mm 0.0 W/m2
20:35 74.8 °F /  23.8 °C 50.9 °F /  10.5 °C 29.63in /  1003.3hPa SSW 2.0mph /  3.2km/h 5.0mph /  8km/h 43% 0.00in /  0mm 0.0 W/m2
20:40 74.8 °F /  23.8 °C 50.9 °F /  10.5 °C 29.63in /  1003.3hPa SSW 0.9mph /  1.4km/h 5.0mph /  8km/h 43% 0.00in /  0mm 0.0 W/m2
20:45 74.7 °F /  23.7 °C 50.7 °F /  10.4 °C 29.63in /  1003.3hPa SE 4.0mph /  6.4km/h 5.0mph /  8km/h 43% 0.00in /  0mm 0.0 W/m2
20:50 74.7 °F /  23.7 °C 50.7 °F /  10.4 °C 29.63in /  1003.3hPa Calm   8.0mph /  12.9km/h 43% 0.00in /  0mm 0.0 W/m2
20:55 74.5 °F /  23.6 °C 51.1 °F /  10.6 °C 29.63in /  1003.3hPa SSW 0.9mph /  1.4km/h 4.0mph /  6.4km/h 44% 0.00in /  0mm 0.0 W/m2
21:00 74.5 °F /  23.6 °C 51.1 °F /  10.6 °C 29.64in /  1003.6hPa Calm   2.0mph /  3.2km/h 44% 0.00in /  0mm 0.0 W/m2
21:05 74.1 °F /  23.4 °C 50.2 °F /  10.1 °C 29.64in /  1003.6hPa Calm   3.0mph /  4.8km/h 43% 0.00in /  0mm 0.0 W/m2
21:11 74.1 °F /  23.4 °C 50.2 °F /  10.1 °C 29.64in /  1003.6hPa Calm   1.0mph /  1.6km/h 43% 0.00in /  0mm 0.0 W/m2
21:16 73.9 °F /  23.3 °C 50.0 °F /  10 °C 29.64in /  1003.6hPa Calm   2.0mph /  3.2km/h 43% 0.00in /  0mm 0.0 W/m2
21:21 73.9 °F /  23.3 °C 50.0 °F /  10 °C 29.65in /  1003.9hPa Calm   1.0mph /  1.6km/h 43% 0.00in /  0mm 0.0 W/m2
21:26 73.8 °F /  23.2 °C 49.8 °F /  9.9 °C 29.65in /  1003.9hPa Calm     43% 0.00in /  0mm 0.0 W/m2
21:31 73.6 °F /  23.1 °C 50.4 °F /  10.2 °C 29.65in /  1003.9hPa Calm     44% 0.00in /  0mm 0.0 W/m2
21:36 73.2 °F /  22.9 °C 49.5 °F /  9.7 °C 29.66in /  1004.3hPa Calm   1.0mph /  1.6km/h 43% 0.00in /  0mm 0.0 W/m2
21:41 73.2 °F /  22.9 °C 48.7 °F /  9.3 °C 29.65in /  1003.9hPa SSE 2.9mph /  4.7km/h 7.0mph /  11.3km/h 42% 0.00in /  0mm 0.0 W/m2
21:43 73.2 °F /  22.9 °C 48.7 °F /  9.3 °C 29.65in /  1003.9hPa SE 4.0mph /  6.4km/h 6.0mph /  9.7km/h 42% 0.00in /  0mm 0.0 W/m2
21:48 73.6 °F /  23.1 °C 49.1 °F /  9.5 °C 29.66in /  1004.3hPa SE 4.0mph /  6.4km/h 6.0mph /  9.7km/h 42% 0.00in /  0mm 0.0 W/m2
21:53 73.6 °F /  23.1 °C 49.1 °F /  9.5 °C 29.65in /  1003.9hPa SE 6.9mph /  11.1km/h 7.0mph /  11.3km/h 42% 0.00in /  0mm 0.0 W/m2
21:58 73.8 °F /  23.2 °C 49.3 °F /  9.6 °C 29.66in /  1004.3hPa Calm   5.0mph /  8km/h 42% 0.00in /  0mm 0.0 W/m2
22:04 73.8 °F /  23.2 °C 49.3 °F /  9.6 °C 29.66in /  1004.3hPa Calm   6.0mph /  9.7km/h 42% 0.00in /  0mm 0.0 W/m2
22:09 73.9 °F /  23.3 °C 49.5 °F /  9.7 °C 29.66in /  1004.3hPa Calm   4.0mph /  6.4km/h 42% 0.00in /  0mm 0.0 W/m2
22:14 73.9 °F /  23.3 °C 49.5 °F /  9.7 °C 29.66in /  1004.3hPa Calm   1.0mph /  1.6km/h 42% 0.00in /  0mm 0.0 W/m2
22:19 73.9 °F /  23.3 °C 49.5 °F /  9.7 °C 29.66in /  1004.3hPa SSE 2.0mph /  3.2km/h 2.0mph /  3.2km/h 42% 0.00in /  0mm 0.0 W/m2
22:24 73.8 °F /  23.2 °C 49.3 °F /  9.6 °C 29.66in /  1004.3hPa Calm   5.0mph /  8km/h 42% 0.00in /  0mm 0.0 W/m2
22:29 73.8 °F /  23.2 °C 49.8 °F /  9.9 °C 29.67in /  1004.6hPa Calm   2.0mph /  3.2km/h 43% 0.00in /  0mm 0.0 W/m2
22:34 73.6 °F /  23.1 °C 50.4 °F /  10.2 °C 29.66in /  1004.3hPa SE 0.9mph /  1.4km/h 1.0mph /  1.6km/h 44% 0.00in /  0mm 0.0 W/m2
22:39 73.2 °F /  22.9 °C 49.5 °F /  9.7 °C 29.67in /  1004.6hPa Calm   2.0mph /  3.2km/h 43% 0.00in /  0mm 0.0 W/m2
22:45 73.0 °F /  22.8 °C 49.3 °F /  9.6 °C 29.67in /  1004.6hPa Calm   3.0mph /  4.8km/h 43% 0.00in /  0mm 0.0 W/m2
22:51 73.0 °F /  22.8 °C 49.3 °F /  9.6 °C 29.67in /  1004.6hPa Calm   2.0mph /  3.2km/h 43% 0.00in /  0mm 0.0 W/m2
22:56 72.9 °F /  22.7 °C 49.1 °F /  9.5 °C 29.67in /  1004.6hPa ESE 2.9mph /  4.7km/h 5.0mph /  8km/h 43% 0.00in /  0mm 0.0 W/m2
23:02 72.9 °F /  22.7 °C 49.1 °F /  9.5 °C 29.67in /  1004.6hPa SE 0.9mph /  1.4km/h 3.0mph /  4.8km/h 43% 0.00in /  0mm 0.0 W/m2
23:07 72.9 °F /  22.7 °C 48.4 °F /  9.1 °C 29.67in /  1004.6hPa SE 4.9mph /  7.9km/h 5.0mph /  8km/h 42% 0.00in /  0mm 0.0 W/m2
23:12 72.9 °F /  22.7 °C 48.4 °F /  9.1 °C 29.68in /  1005hPa SSE 4.0mph /  6.4km/h 4.0mph /  6.4km/h 42% 0.00in /  0mm 0.0 W/m2
23:17 73.0 °F /  22.8 °C 48.6 °F /  9.2 °C 29.68in /  1005hPa SE 4.9mph /  7.9km/h 5.0mph /  8km/h 42% 0.00in /  0mm 0.0 W/m2
23:22 73.0 °F /  22.8 °C 48.6 °F /  9.2 °C 29.68in /  1005hPa Calm   2.0mph /  3.2km/h 42% 0.00in /  0mm 0.0 W/m2
23:27 73.2 °F /  22.9 °C 48.7 °F /  9.3 °C 29.68in /  1005hPa East 2.0mph /  3.2km/h 7.0mph /  11.3km/h 42% 0.00in /  0mm 0.0 W/m2
23:33 73.8 °F /  23.2 °C 49.8 °F /  9.9 °C 29.68in /  1005hPa ESE 6.9mph /  11.1km/h 7.0mph /  11.3km/h 43% 0.00in /  0mm 0.0 W/m2
23:38 74.1 °F /  23.4 °C 50.9 °F /  10.5 °C 29.68in /  1005hPa SE 2.0mph /  3.2km/h 7.0mph /  11.3km/h 44% 0.00in /  0mm 0.0 W/m2
23:43 74.7 °F /  23.7 °C 50.7 °F /  10.4 °C 29.68in /  1005hPa ESE 4.9mph /  7.9km/h 7.0mph /  11.3km/h 43% 0.00in /  0mm 0.0 W/m2
23:48 74.8 °F /  23.8 °C 51.4 °F /  10.8 °C 29.68in /  1005hPa SE 4.0mph /  6.4km/h 5.0mph /  8km/h 44% 0.00in /  0mm 0.0 W/m2
23:53 74.8 °F /  23.8 °C 50.9 °F /  10.5 °C 29.68in /  1005hPa ESE 2.9mph /  4.7km/h 4.0mph /  6.4km/h 43% 0.00in /  0mm 0.0 W/m2
23:58 74.8 °F /  23.8 °C 50.9 °F /  10.5 °C 29.68in /  1005hPa ESE 4.0mph /  6.4km/h 4.0mph /  6.4km/h 43% 0.00in /  0mm 0.0 W/m2
Olympia, Windhoek, Namibia
Compliments of Weather Underground - 3.25 mb